Time;durP1;ratioP1;P1;durP2;ratioP2;P2;SDS_P1;SDS_P2;PMS_P1;PMS_P2;Temp;Humidity;BMP_temperature;BMP_pressure;BME280_temperature;BME280_humidity;BME280_pressure;Samples;Min_cycle;Max_cycle;Signal;HPM_P1;HPM_P2
2023/09/18 00:00:46;;;;;;;4.78;4.30;;;;;;;;;;4998096;28;20651;-72
2023/09/18 00:03:11;;;;;;;5.03;4.00;;;;;;;;;;4998029;28;20042;-71
2023/09/18 00:05:37;;;;;;;8.88;4.90;;;;;;;;;;4998982;28;20136;-71
2023/09/18 00:08:02;;;;;;;4.78;4.20;;;;;;;;;;4998477;28;20057;-71
2023/09/18 00:10:31;;;;;;;5.30;4.13;;;;;;;;;;5000226;28;20052;-71
2023/09/18 00:12:57;;;;;;;5.78;4.07;;;;;;;;;;4997014;28;20048;-71
2023/09/18 00:15:22;;;;;;;4.78;4.13;;;;;;;;;;5013231;28;20041;-71
2023/09/18 00:17:48;;;;;;;4.78;4.25;;;;;;;;;;4997781;28;20054;-71
2023/09/18 00:20:13;;;;;;;5.45;4.57;;;;;;;;;;4994455;28;20096;-71
2023/09/18 00:22:39;;;;;;;5.53;4.65;;;;;;;;;;4996412;28;20087;-72
2023/09/18 00:25:05;;;;;;;6.78;4.93;;;;;;;;;;4997227;28;21092;-71
2023/09/18 00:27:30;;;;;;;6.80;5.07;;;;;;;;;;4999522;28;20081;-71
2023/09/18 00:29:56;;;;;;;6.68;5.55;;;;;;;;;;4999439;28;20041;-71
2023/09/18 00:32:21;;;;;;;8.23;4.22;;;;;;;;;;5015993;28;20193;-71
2023/09/18 00:34:47;;;;;;;4.93;4.10;;;;;;;;;;4999834;28;20052;-70
2023/09/18 00:37:12;;;;;;;5.03;3.67;;;;;;;;;;4999786;28;20054;-71
2023/09/18 00:39:39;;;;;;;4.18;3.63;;;;;;;;;;5000065;28;20656;-70
2023/09/18 00:42:05;;;;;;;4.68;3.30;;;;;;;;;;4999513;28;20125;-70
2023/09/18 00:44:30;;;;;;;5.68;3.13;;;;;;;;;;5000172;28;20096;-70
2023/09/18 00:46:56;;;;;;;4.85;3.20;;;;;;;;;;5001088;28;20138;-70
2023/09/18 00:49:22;;;;;;;6.82;3.33;;;;;;;;;;4999516;28;20124;-70
2023/09/18 00:51:49;;;;;;;5.70;3.17;;;;;;;;;;4982603;28;20247;-70
2023/09/18 00:54:18;;;;;;;3.47;3.17;;;;;;;;;;4998946;28;20046;-72
2023/09/18 00:56:48;;;;;;;5.13;2.95;;;;;;;;;;4998778;28;20056;-71
2023/09/18 00:59:14;;;;;;;3.72;2.45;;;;;;;;;;4983156;28;21067;-71
2023/09/18 01:01:41;;;;;;;3.42;3.05;;;;;;;;;;4979949;28;20497;-70
2023/09/18 01:04:07;;;;;;;6.97;2.80;;;;;;;;;;4978528;28;20190;-71
2023/09/18 01:06:33;;;;;;;4.35;3.00;;;;;;;;;;4983982;28;20629;-70
2023/09/18 01:08:59;;;;;;;4.15;2.60;;;;;;;;;;4984372;28;20069;-69
2023/09/18 01:11:44;;;;;;;3.63;2.78;;;;;;;;;;4988520;28;20060;-70
2023/09/18 01:14:36;;;;;;;3.75;2.55;;;;;;;;;;4992327;28;20049;-70
2023/09/18 01:17:03;;;;;;;3.40;2.40;;;;;;;;;;4999887;28;20064;-70
2023/09/18 01:19:39;;;;;;;4.22;2.58;;;;;;;;;;5015893;28;20056;-71
2023/09/18 01:22:10;;;;;;;3.20;2.28;;;;;;;;;;4999544;28;20141;-70
2023/09/18 01:24:37;;;;;;;3.67;2.50;;;;;;;;;;5000601;28;20079;-70
2023/09/18 01:27:06;;;;;;;2.80;2.30;;;;;;;;;;4999073;28;20058;-70
2023/09/18 01:29:32;;;;;;;3.22;2.20;;;;;;;;;;5014920;28;20053;-70
2023/09/18 01:31:58;;;;;;;2.90;2.22;;;;;;;;;;4999278;28;20046;-70
2023/09/18 01:34:33;;;;;;;4.85;2.40;;;;;;;;;;4998283;28;20041;-70
2023/09/18 01:36:59;;;;;;;3.70;2.17;;;;;;;;;;4997423;28;20049;-70
2023/09/18 01:39:31;;;;;;;3.40;2.60;;;;;;;;;;4999454;28;20041;-70
2023/09/18 01:42:00;;;;;;;4.97;2.53;;;;;;;;;;5000901;28;20100;-70
2023/09/18 01:44:25;;;;;;;3.42;2.45;;;;;;;;;;4999877;28;20430;-70
2023/09/18 01:46:55;;;;;;;3.20;2.53;;;;;;;;;;4982831;28;20050;-71
2023/09/18 01:49:33;;;;;;;2.95;2.50;;;;;;;;;;4998064;28;20064;-70
2023/09/18 01:51:59;;;;;;;4.70;2.25;;;;;;;;;;5000088;28;20053;-70
2023/09/18 01:54:25;;;;;;;4.65;2.25;;;;;;;;;;4998459;28;20056;-70
2023/09/18 01:56:53;;;;;;;2.88;2.53;;;;;;;;;;4992302;28;20069;-70
2023/09/18 01:59:19;;;;;;;3.67;2.47;;;;;;;;;;4971778;28;20063;-72
2023/09/18 02:01:46;;;;;;;2.83;2.63;;;;;;;;;;4977020;28;20107;-72
2023/09/18 02:04:12;;;;;;;3.38;2.22;;;;;;;;;;4981238;28;20050;-72
2023/09/18 02:06:37;;;;;;;2.85;2.63;;;;;;;;;;4979388;28;20056;-72
2023/09/18 02:09:03;;;;;;;4.40;2.45;;;;;;;;;;4971334;28;20053;-72
2023/09/18 02:11:29;;;;;;;2.85;2.60;;;;;;;;;;4994585;28;20074;-72
2023/09/18 02:13:56;;;;;;;4.00;2.92;;;;;;;;;;4979093;28;20388;-71
2023/09/18 02:16:22;;;;;;;4.20;3.05;;;;;;;;;;4978847;28;20151;-72
2023/09/18 02:18:48;;;;;;;3.90;2.55;;;;;;;;;;4979083;28;20047;-72
2023/09/18 02:21:20;;;;;;;3.60;2.60;;;;;;;;;;4979149;28;20407;-70
2023/09/18 02:23:48;;;;;;;6.05;2.88;;;;;;;;;;4978848;28;20589;-72
2023/09/18 02:26:14;;;;;;;5.65;2.83;;;;;;;;;;4961431;28;20052;-71
2023/09/18 02:28:39;;;;;;;4.90;2.70;;;;;;;;;;4979717;28;20042;-70
2023/09/18 02:31:04;;;;;;;7.57;2.83;;;;;;;;;;4961926;28;20053;-70
2023/09/18 02:33:30;;;;;;;3.85;2.53;;;;;;;;;;4994021;28;20049;-70
2023/09/18 02:35:58;;;;;;;4.60;2.40;;;;;;;;;;4980101;28;22078;-72
2023/09/18 02:38:24;;;;;;;6.22;2.30;;;;;;;;;;4960638;28;20038;-72
2023/09/18 02:40:51;;;;;;;6.18;2.47;;;;;;;;;;4979993;28;20062;-73
2023/09/18 02:43:16;;;;;;;3.58;2.45;;;;;;;;;;4976826;28;20046;-73
2023/09/18 02:45:42;;;;;;;4.85;2.45;;;;;;;;;;4962116;28;20392;-73
2023/09/18 02:48:08;;;;;;;4.18;2.63;;;;;;;;;;4977062;28;20106;-72
2023/09/18 02:50:33;;;;;;;3.00;2.63;;;;;;;;;;4977586;28;20065;-73
2023/09/18 02:52:59;;;;;;;4.65;2.45;;;;;;;;;;4977469;28;20049;-72
2023/09/18 02:55:24;;;;;;;2.80;2.50;;;;;;;;;;4976632;28;20141;-72
2023/09/18 02:57:49;;;;;;;3.33;2.53;;;;;;;;;;4961794;28;20388;-73
2023/09/18 03:00:15;;;;;;;3.20;2.28;;;;;;;;;;4976589;28;20050;-72
2023/09/18 03:02:41;;;;;;;2.40;2.20;;;;;;;;;;4979444;28;20642;-73
2023/09/18 03:05:08;;;;;;;5.13;2.30;;;;;;;;;;4986015;28;20049;-72
2023/09/18 03:07:34;;;;;;;2.65;2.40;;;;;;;;;;4980678;28;20034;-73
2023/09/18 03:09:59;;;;;;;4.53;2.38;;;;;;;;;;4981381;28;20048;-73
2023/09/18 03:12:24;;;;;;;4.45;2.42;;;;;;;;;;4979573;28;20053;-71
2023/09/18 03:14:51;;;;;;;3.50;2.38;;;;;;;;;;4998574;28;20645;-72
2023/09/18 03:17:17;;;;;;;3.47;2.45;;;;;;;;;;4979005;28;20150;-71
2023/09/18 03:19:42;;;;;;;4.70;2.38;;;;;;;;;;4981110;28;20136;-71
2023/09/18 03:22:08;;;;;;;2.85;2.25;;;;;;;;;;4979507;28;20046;-71
2023/09/18 03:24:33;;;;;;;3.38;2.70;;;;;;;;;;4980755;28;20127;-72
2023/09/18 03:26:59;;;;;;;2.60;2.40;;;;;;;;;;4997437;28;20053;-72
2023/09/18 03:29:25;;;;;;;4.15;2.65;;;;;;;;;;4979638;28;20046;-71
2023/09/18 03:31:50;;;;;;;2.35;2.15;;;;;;;;;;4980320;28;20137;-72
2023/09/18 03:34:16;;;;;;;4.93;2.80;;;;;;;;;;4979634;28;20773;-71
2023/09/18 03:36:42;;;;;;;5.20;2.65;;;;;;;;;;4980174;28;20061;-71
2023/09/18 03:39:09;;;;;;;3.10;2.47;;;;;;;;;;4979860;28;20556;-72
2023/09/18 03:41:35;;;;;;;5.32;2.67;;;;;;;;;;4976907;28;20474;-72
2023/09/18 03:44:00;;;;;;;4.05;2.45;;;;;;;;;;4980512;28;20041;-70
2023/09/18 03:46:26;;;;;;;5.43;2.30;;;;;;;;;;4995714;28;20074;-71
2023/09/18 03:48:52;;;;;;;3.67;2.35;;;;;;;;;;4980532;28;20077;-69
2023/09/18 03:51:19;;;;;;;2.92;2.42;;;;;;;;;;4997292;28;20093;-69
2023/09/18 03:53:44;;;;;;;6.50;2.50;;;;;;;;;;4998677;28;20112;-69
2023/09/18 03:56:10;;;;;;;4.88;2.20;;;;;;;;;;4980843;28;20050;-69
2023/09/18 03:58:35;;;;;;;4.05;2.60;;;;;;;;;;4999648;28;20041;-69
2023/09/18 04:01:01;;;;;;;6.15;2.45;;;;;;;;;;4996988;28;20054;-69
2023/09/18 04:03:27;;;;;;;2.97;2.38;;;;;;;;;;4979071;28;20045;-72
2023/09/18 04:05:52;;;;;;;4.93;3.00;;;;;;;;;;4997981;28;20053;-72
2023/09/18 04:08:18;;;;;;;4.28;2.60;;;;;;;;;;4995389;28;20459;-72
2023/09/18 04:10:44;;;;;;;3.67;2.40;;;;;;;;;;4979801;28;20158;-72
2023/09/18 04:13:10;;;;;;;4.82;2.65;;;;;;;;;;4996752;28;20408;-71
2023/09/18 04:15:38;;;;;;;3.47;2.50;;;;;;;;;;4997694;28;20604;-71
2023/09/18 04:18:07;;;;;;;4.50;2.30;;;;;;;;;;4995491;28;20446;-71
2023/09/18 04:20:33;;;;;;;2.65;2.22;;;;;;;;;;4994928;28;20037;-71
2023/09/18 04:23:21;;;;;;;3.28;2.15;;;;;;;;;;4994960;28;20046;-72
2023/09/18 04:25:47;;;;;;;6.32;2.63;;;;;;;;;;4997021;28;20097;-71
2023/09/18 04:28:14;;;;;;;3.55;2.80;;;;;;;;;;4978902;28;20038;-72
2023/09/18 04:30:40;;;;;;;6.38;2.38;;;;;;;;;;4979344;28;20045;-72
2023/09/18 04:33:06;;;;;;;3.50;2.63;;;;;;;;;;4992954;28;20069;-72
2023/09/18 04:35:32;;;;;;;3.70;2.55;;;;;;;;;;4979029;28;20368;-71
2023/09/18 04:37:58;;;;;;;2.50;2.30;;;;;;;;;;4979675;28;20471;-72
2023/09/18 04:40:24;;;;;;;8.60;2.58;;;;;;;;;;4978232;28;20053;-72
2023/09/18 04:42:50;;;;;;;3.15;2.03;;;;;;;;;;4988577;28;20056;-72
2023/09/18 04:45:16;;;;;;;2.55;2.17;;;;;;;;;;4975172;28;20043;-71
2023/09/18 04:47:42;;;;;;;6.35;2.80;;;;;;;;;;4975786;28;20868;-71
2023/09/18 04:50:09;;;;;;;7.07;2.90;;;;;;;;;;4976195;28;20046;-73
2023/09/18 04:52:40;;;;;;;5.95;2.35;;;;;;;;;;4980111;28;20050;-73
2023/09/18 04:55:06;;;;;;;2.92;2.40;;;;;;;;;;4996235;28;20053;-71
2023/09/18 04:57:33;;;;;;;5.55;3.03;;;;;;;;;;4994790;28;20214;-72
2023/09/18 04:59:58;;;;;;;4.72;2.67;;;;;;;;;;4996318;28;21086;-72
2023/09/18 05:02:25;;;;;;;5.03;2.33;;;;;;;;;;4994837;28;20045;-72
2023/09/18 05:04:51;;;;;;;3.53;2.20;;;;;;;;;;5012403;28;20533;-72
2023/09/18 05:07:17;;;;;;;5.78;2.38;;;;;;;;;;4994822;28;20144;-70
2023/09/18 05:09:42;;;;;;;4.25;2.50;;;;;;;;;;4996801;28;20124;-71
2023/09/18 05:12:13;;;;;;;5.00;2.28;;;;;;;;;;4996634;28;20485;-70
2023/09/18 05:14:43;;;;;;;2.50;2.20;;;;;;;;;;4997565;28;20054;-70
2023/09/18 05:17:15;;;;;;;4.50;2.25;;;;;;;;;;4999568;28;20192;-70
2023/09/18 05:19:40;;;;;;;2.95;2.45;;;;;;;;;;5000011;28;20071;-71
2023/09/18 05:22:06;;;;;;;3.90;2.40;;;;;;;;;;4998633;28;20045;-70
2023/09/18 05:24:32;;;;;;;7.75;2.63;;;;;;;;;;4999511;28;20042;-70
2023/09/18 05:26:57;;;;;;;2.55;2.30;;;;;;;;;;5000029;28;20050;-71
2023/09/18 05:29:24;;;;;;;4.07;2.30;;;;;;;;;;4998608;28;20053;-70
2023/09/18 05:31:49;;;;;;;4.43;2.55;;;;;;;;;;5015359;28;20060;-70
2023/09/18 05:34:14;;;;;;;3.30;2.40;;;;;;;;;;5014640;28;20050;-70
2023/09/18 05:36:40;;;;;;;3.28;2.35;;;;;;;;;;4998779;28;20049;-72
2023/09/18 05:39:09;;;;;;;8.45;2.70;;;;;;;;;;4998235;28;20053;-71
2023/09/18 05:41:35;;;;;;;4.93;2.70;;;;;;;;;;4997799;28;20412;-70
2023/09/18 05:44:03;;;;;;;6.25;2.55;;;;;;;;;;4996061;28;20053;-71
2023/09/18 05:46:29;;;;;;;6.13;2.50;;;;;;;;;;4999002;28;20054;-71
2023/09/18 05:48:56;;;;;;;5.10;2.97;;;;;;;;;;5000267;28;20131;-71
2023/09/18 05:51:22;;;;;;;3.88;2.40;;;;;;;;;;5013657;28;20041;-70
2023/09/18 05:53:48;;;;;;;2.63;2.38;;;;;;;;;;4996681;28;20079;-73
2023/09/18 05:56:14;;;;;;;3.58;2.85;;;;;;;;;;4996966;28;20138;-72
2023/09/18 05:58:39;;;;;;;2.03;1.70;;;;;;;;;;4998591;28;20049;-73
2023/09/18 06:01:07;;;;;;;8.88;2.47;;;;;;;;;;4999826;28;20159;-73
2023/09/18 06:03:35;;;;;;;2.75;2.13;;;;;;;;;;4997915;28;20913;-73
2023/09/18 06:06:05;;;;;;;5.85;2.50;;;;;;;;;;5014738;28;20042;-72
2023/09/18 06:08:31;;;;;;;6.35;2.17;;;;;;;;;;4999173;28;20528;-72
2023/09/18 06:10:57;;;;;;;3.13;2.42;;;;;;;;;;4982163;28;20097;-73
2023/09/18 06:13:27;;;;;;;2.30;2.08;;;;;;;;;;4999213;28;20050;-73
2023/09/18 06:15:55;;;;;;;2.25;1.98;;;;;;;;;;4999320;28;20061;-71
2023/09/18 06:18:21;;;;;;;3.65;2.25;;;;;;;;;;4999436;28;20469;-72
2023/09/18 06:20:47;;;;;;;4.97;2.40;;;;;;;;;;4999431;28;20115;-71
2023/09/18 06:23:13;;;;;;;4.00;2.22;;;;;;;;;;5014114;28;20123;-71
2023/09/18 06:25:41;;;;;;;5.68;2.30;;;;;;;;;;5012208;28;20060;-73
2023/09/18 06:28:07;;;;;;;4.35;2.17;;;;;;;;;;5012104;28;20050;-72
2023/09/18 06:30:34;;;;;;;3.17;2.10;;;;;;;;;;4998440;28;20108;-70
2023/09/18 06:33:03;;;;;;;5.03;2.38;;;;;;;;;;4981896;28;20054;-71
2023/09/18 06:35:29;;;;;;;6.55;2.40;;;;;;;;;;4998276;28;20046;-71
2023/09/18 06:37:58;;;;;;;2.22;2.00;;;;;;;;;;4997984;28;20108;-71
2023/09/18 06:40:24;;;;;;;3.92;2.42;;;;;;;;;;4997683;28;20918;-70
2023/09/18 06:42:51;;;;;;;2.30;2.00;;;;;;;;;;4999521;28;20056;-70
2023/09/18 06:45:17;;;;;;;4.45;2.15;;;;;;;;;;4996971;28;20142;-71
2023/09/18 06:47:42;;;;;;;5.63;2.30;;;;;;;;;;4998142;28;20606;-71
2023/09/18 06:50:09;;;;;;;6.28;2.38;;;;;;;;;;4998532;28;20542;-71
2023/09/18 06:52:34;;;;;;;8.48;2.55;;;;;;;;;;4997399;28;20388;-71
2023/09/18 06:54:59;;;;;;;7.82;2.50;;;;;;;;;;4998667;28;20490;-71
2023/09/18 06:57:25;;;;;;;4.00;2.30;;;;;;;;;;4997646;28;20507;-71
2023/09/18 06:59:51;;;;;;;3.65;2.42;;;;;;;;;;4998311;28;20042;-72
2023/09/18 07:02:16;;;;;;;8.60;2.25;;;;;;;;;;4997387;28;20065;-71
2023/09/18 07:04:45;;;;;;;4.72;2.47;;;;;;;;;;4998520;28;20125;-71
2023/09/18 07:07:14;;;;;;;7.53;2.13;;;;;;;;;;4997312;28;20048;-71
2023/09/18 07:09:41;;;;;;;8.48;2.22;;;;;;;;;;4998207;28;21024;-70
2023/09/18 07:12:09;;;;;;;4.50;2.10;;;;;;;;;;4997972;28;20038;-71
2023/09/18 07:14:35;;;;;;;4.38;2.53;;;;;;;;;;4998305;28;20156;-72
2023/09/18 07:17:01;;;;;;;7.22;3.00;;;;;;;;;;5013377;28;20934;-72
2023/09/18 07:19:27;;;;;;;3.67;2.10;;;;;;;;;;4997773;28;20038;-71
2023/09/18 07:21:52;;;;;;;6.35;2.40;;;;;;;;;;4996941;28;20080;-70
2023/09/18 07:24:20;;;;;;;3.40;2.17;;;;;;;;;;4998403;28;20276;-72
2023/09/18 07:26:47;;;;;;;4.53;1.92;;;;;;;;;;4996537;28;20046;-72
2023/09/18 07:29:16;;;;;;;5.30;2.30;;;;;;;;;;4998044;28;20610;-73
2023/09/18 07:31:43;;;;;;;8.55;2.10;;;;;;;;;;4996296;28;20034;-73
2023/09/18 07:34:09;;;;;;;3.65;2.17;;;;;;;;;;4997223;28;20045;-73
2023/09/18 07:36:34;;;;;;;2.25;2.00;;;;;;;;;;4998339;28;20104;-72
2023/09/18 07:39:00;;;;;;;9.25;2.17;;;;;;;;;;5001936;28;20076;-74
2023/09/18 07:41:25;;;;;;;7.53;2.40;;;;;;;;;;5000552;28;20128;-73
2023/09/18 07:43:51;;;;;;;6.38;1.98;;;;;;;;;;5014837;28;20164;-73
2023/09/18 07:46:16;;;;;;;6.43;1.80;;;;;;;;;;4998570;28;20057;-73
2023/09/18 07:48:42;;;;;;;3.95;1.90;;;;;;;;;;4999046;28;20084;-74
2023/09/18 07:51:11;;;;;;;5.30;1.88;;;;;;;;;;4998293;28;20164;-73
2023/09/18 07:53:37;;;;;;;4.78;2.38;;;;;;;;;;4997816;28;20038;-73
2023/09/18 07:56:04;;;;;;;7.88;1.80;;;;;;;;;;4996365;28;20037;-73
2023/09/18 07:58:30;;;;;;;5.30;2.45;;;;;;;;;;4996470;28;20050;-72
2023/09/18 08:00:57;;;;;;;2.55;1.80;;;;;;;;;;4996389;28;20041;-72
2023/09/18 08:03:24;;;;;;;7.78;2.33;;;;;;;;;;4998720;28;20038;-72
2023/09/18 08:05:52;;;;;;;7.38;2.28;;;;;;;;;;4997261;28;20049;-73
2023/09/18 08:08:19;;;;;;;9.98;2.33;;;;;;;;;;4995866;28;20060;-72
2023/09/18 08:10:45;;;;;;;5.28;1.90;;;;;;;;;;4997316;28;20887;-73
2023/09/18 08:13:11;;;;;;;5.72;1.75;;;;;;;;;;4996301;28;20042;-72
2023/09/18 08:15:37;;;;;;;5.47;1.77;;;;;;;;;;4996959;28;20037;-73
2023/09/18 08:18:03;;;;;;;5.95;1.75;;;;;;;;;;4998544;28;20038;-72
2023/09/18 08:20:28;;;;;;;4.70;2.38;;;;;;;;;;4998266;28;20073;-72
2023/09/18 08:22:54;;;;;;;4.00;1.48;;;;;;;;;;4997882;28;20052;-73
2023/09/18 08:25:20;;;;;;;5.95;1.65;;;;;;;;;;4979465;28;20045;-72
2023/09/18 08:27:45;;;;;;;6.22;2.10;;;;;;;;;;5000161;28;20061;-72
2023/09/18 08:30:12;;;;;;;6.03;2.03;;;;;;;;;;5014153;28;20454;-73
2023/09/18 08:32:38;;;;;;;4.32;2.30;;;;;;;;;;4995630;28;20073;-73
2023/09/18 08:35:05;;;;;;;7.15;2.00;;;;;;;;;;4996842;28;20060;-73
2023/09/18 08:37:30;;;;;;;5.30;2.00;;;;;;;;;;4996298;28;20049;-73
2023/09/18 08:39:56;;;;;;;3.47;1.88;;;;;;;;;;4997705;28;20415;-73
2023/09/18 08:42:23;;;;;;;3.28;1.52;;;;;;;;;;4995753;28;20487;-73
2023/09/18 08:44:54;;;;;;;5.13;2.22;;;;;;;;;;4997114;28;21039;-74
2023/09/18 08:47:20;;;;;;;6.63;1.90;;;;;;;;;;4997066;28;20127;-73
2023/09/18 08:49:49;;;;;;;3.88;2.08;;;;;;;;;;5001330;28;20045;-73
2023/09/18 08:52:15;;;;;;;9.55;2.10;;;;;;;;;;5001738;28;20516;-74
2023/09/18 08:54:40;;;;;;;5.65;2.00;;;;;;;;;;5015903;28;20810;-73
2023/09/18 08:57:07;;;;;;;4.30;2.10;;;;;;;;;;5001061;28;20046;-73
2023/09/18 08:59:35;;;;;;;4.55;1.92;;;;;;;;;;5000659;28;20065;-73
2023/09/18 09:02:00;;;;;;;9.32;1.98;;;;;;;;;;5001207;28;20064;-74
2023/09/18 09:04:26;;;;;;;4.47;2.00;;;;;;;;;;5015649;28;20058;-73
2023/09/18 09:06:52;;;;;;;3.40;1.80;;;;;;;;;;5000520;28;20072;-73
2023/09/18 09:09:19;;;;;;;11.90;2.90;;;;;;;;;;5001528;28;20046;-74
2023/09/18 09:11:51;;;;;;;7.95;2.42;;;;;;;;;;5001391;28;20057;-72
2023/09/18 09:14:18;;;;;;;4.05;1.90;;;;;;;;;;5000873;28;20108;-73
2023/09/18 09:16:48;;;;;;;7.07;2.03;;;;;;;;;;5001338;28;20125;-73
2023/09/18 09:19:16;;;;;;;6.05;1.85;;;;;;;;;;5001633;28;20042;-73
2023/09/18 09:21:43;;;;;;;4.43;2.10;;;;;;;;;;5001371;28;20577;-73
2023/09/18 09:24:13;;;;;;;6.95;1.95;;;;;;;;;;5001028;28;20065;-73
2023/09/18 09:26:40;;;;;;;3.95;2.38;;;;;;;;;;5001255;28;21110;-73
2023/09/18 09:29:20;;;;;;;4.65;1.88;;;;;;;;;;5016133;28;20046;-72
2023/09/18 09:31:46;;;;;;;13.95;2.42;;;;;;;;;;4997961;28;20046;-72
2023/09/18 09:34:12;;;;;;;4.78;2.20;;;;;;;;;;5015295;28;20540;-73
2023/09/18 09:36:55;;;;;;;3.17;2.15;;;;;;;;;;5000073;28;20127;-74
2023/09/18 09:39:25;;;;;;;5.80;2.15;;;;;;;;;;5000162;28;20052;-73
2023/09/18 09:41:52;;;;;;;5.38;2.33;;;;;;;;;;4998197;28;20052;-74
2023/09/18 09:44:18;;;;;;;12.43;2.20;;;;;;;;;;4998759;28;20495;-73
2023/09/18 09:46:48;;;;;;;4.47;2.30;;;;;;;;;;5000102;28;20060;-74
2023/09/18 09:49:15;;;;;;;10.30;2.20;;;;;;;;;;5000315;28;20061;-74
2023/09/18 09:51:41;;;;;;;5.80;2.20;;;;;;;;;;4997337;28;20064;-74
2023/09/18 09:54:07;;;;;;;4.50;2.17;;;;;;;;;;4981532;28;20046;-73
2023/09/18 09:56:50;;;;;;;5.53;2.00;;;;;;;;;;5000345;28;20053;-72
2023/09/18 09:59:18;;;;;;;12.05;2.83;;;;;;;;;;5014747;28;20057;-72
2023/09/18 10:01:48;;;;;;;5.97;1.90;;;;;;;;;;5000063;28;20107;-72
2023/09/18 10:04:17;;;;;;;8.38;2.08;;;;;;;;;;4998898;28;20129;-73
2023/09/18 10:06:50;;;;;;;6.82;2.38;;;;;;;;;;4999061;28;20116;-75
2023/09/18 10:09:18;;;;;;;3.80;2.10;;;;;;;;;;4999933;28;20045;-74
2023/09/18 10:11:48;;;;;;;7.50;2.40;;;;;;;;;;4999297;28;20053;-73
2023/09/18 10:14:19;;;;;;;4.57;2.00;;;;;;;;;;4995253;28;20045;-73
2023/09/18 10:16:50;;;;;;;4.03;2.40;;;;;;;;;;4997653;28;20557;-73
2023/09/18 10:19:39;;;;;;;5.20;2.10;;;;;;;;;;5000095;28;20395;-73
2023/09/18 10:22:22;;;;;;;5.15;2.38;;;;;;;;;;4999409;28;20045;-74
2023/09/18 10:24:54;;;;;;;5.70;2.35;;;;;;;;;;4996467;28;20049;-74
2023/09/18 10:27:22;;;;;;;8.65;2.20;;;;;;;;;;5014591;28;20084;-75
2023/09/18 10:29:51;;;;;;;6.65;2.33;;;;;;;;;;5014193;28;20088;-73
2023/09/18 10:32:20;;;;;;;8.95;2.30;;;;;;;;;;4999155;28;20100;-74
2023/09/18 10:34:47;;;;;;;4.07;2.28;;;;;;;;;;4997769;28;20046;-73
2023/09/18 10:37:15;;;;;;;3.25;2.05;;;;;;;;;;5013973;28;20052;-72
2023/09/18 10:39:43;;;;;;;6.45;2.03;;;;;;;;;;4998444;28;20046;-73
2023/09/18 10:42:10;;;;;;;6.20;2.05;;;;;;;;;;4998359;28;20129;-74
2023/09/18 10:44:36;;;;;;;4.97;1.95;;;;;;;;;;5000176;28;20048;-74
2023/09/18 10:47:07;;;;;;;8.23;2.20;;;;;;;;;;4998209;28;20136;-73
2023/09/18 10:49:35;;;;;;;8.57;2.67;;;;;;;;;;4999530;28;20046;-74
2023/09/18 10:52:00;;;;;;;10.10;2.10;;;;;;;;;;4997470;28;20212;-73
2023/09/18 10:54:27;;;;;;;3.78;1.70;;;;;;;;;;4998875;28;20063;-74
2023/09/18 10:56:55;;;;;;;6.47;1.90;;;;;;;;;;4998637;28;20058;-73
2023/09/18 10:59:20;;;;;;;14.05;2.25;;;;;;;;;;5014211;28;20419;-73
2023/09/18 11:01:47;;;;;;;8.38;2.10;;;;;;;;;;4999620;28;20052;-74
2023/09/18 11:04:14;;;;;;;6.20;2.45;;;;;;;;;;5013310;28;20057;-75
2023/09/18 11:06:55;;;;;;;5.97;2.30;;;;;;;;;;4998041;28;20054;-74
2023/09/18 11:09:20;;;;;;;8.88;2.17;;;;;;;;;;4998968;28;20109;-73
2023/09/18 11:11:48;;;;;;;4.30;2.15;;;;;;;;;;4997583;28;20049;-74
2023/09/18 11:14:14;;;;;;;8.70;2.13;;;;;;;;;;4998674;28;20054;-73
2023/09/18 11:16:40;;;;;;;5.80;2.10;;;;;;;;;;4999483;28;20161;-74
2023/09/18 11:19:11;;;;;;;6.30;1.90;;;;;;;;;;5013477;28;20136;-74
2023/09/18 11:21:37;;;;;;;8.20;2.00;;;;;;;;;;4999585;28;20410;-72
2023/09/18 11:24:11;;;;;;;8.00;2.05;;;;;;;;;;4997746;28;20045;-71
2023/09/18 11:26:40;;;;;;;4.97;1.80;;;;;;;;;;4998990;28;20125;-72
2023/09/18 11:29:15;;;;;;;10.88;1.95;;;;;;;;;;4998880;28;21231;-72
2023/09/18 11:31:43;;;;;;;4.78;1.73;;;;;;;;;;4998015;28;20057;-72
2023/09/18 11:34:15;;;;;;;6.53;2.03;;;;;;;;;;4996811;28;20125;-73
2023/09/18 11:36:41;;;;;;;6.05;2.20;;;;;;;;;;4996606;28;20065;-73
2023/09/18 11:39:11;;;;;;;8.82;1.90;;;;;;;;;;4996500;28;20049;-73
2023/09/18 11:41:38;;;;;;;7.45;1.77;;;;;;;;;;4997612;28;20064;-73
2023/09/18 11:44:07;;;;;;;9.68;1.77;;;;;;;;;;4996777;28;20125;-73
2023/09/18 11:46:33;;;;;;;13.70;2.40;;;;;;;;;;4997511;28;20797;-73
2023/09/18 11:48:59;;;;;;;11.57;2.35;;;;;;;;;;4997729;28;20903;-73
2023/09/18 11:51:25;;;;;;;8.75;1.52;;;;;;;;;;4998378;28;20100;-73
2023/09/18 11:53:55;;;;;;;6.32;1.90;;;;;;;;;;4996994;28;20107;-72
2023/09/18 11:56:21;;;;;;;9.32;1.95;;;;;;;;;;4997583;28;20046;-72
2023/09/18 11:58:51;;;;;;;7.65;2.97;;;;;;;;;;4996227;28;20060;-72
2023/09/18 12:01:22;;;;;;;13.45;2.42;;;;;;;;;;4996072;28;20104;-72
2023/09/18 12:04:07;;;;;;;11.88;2.35;;;;;;;;;;4996161;28;20054;-73
2023/09/18 12:06:33;;;;;;;6.35;2.20;;;;;;;;;;4995901;28;20049;-73
2023/09/18 12:08:59;;;;;;;8.27;2.22;;;;;;;;;;4995689;28;20057;-73
2023/09/18 12:11:25;;;;;;;11.38;2.75;;;;;;;;;;4997766;28;20049;-73
2023/09/18 12:13:51;;;;;;;11.30;2.80;;;;;;;;;;5012722;28;20116;-71
2023/09/18 12:16:18;;;;;;;11.40;2.83;;;;;;;;;;4995036;28;20049;-72
2023/09/18 12:18:48;;;;;;;7.30;2.72;;;;;;;;;;4996698;28;20038;-72
2023/09/18 12:21:15;;;;;;;7.93;1.80;;;;;;;;;;5012217;28;20081;-73
2023/09/18 12:23:43;;;;;;;6.88;1.98;;;;;;;;;;4997855;28;20050;-72
2023/09/18 12:26:13;;;;;;;11.98;1.40;;;;;;;;;;4995875;28;20057;-72
2023/09/18 12:28:39;;;;;;;4.28;1.13;;;;;;;;;;4996775;28;20443;-74
2023/09/18 12:31:10;;;;;;;6.68;1.50;;;;;;;;;;4995638;28;20054;-73
2023/09/18 12:33:37;;;;;;;3.88;1.25;;;;;;;;;;4996002;28;20057;-74
2023/09/18 12:36:04;;;;;;;4.20;1.10;;;;;;;;;;4995182;28;20041;-73
2023/09/18 12:38:30;;;;;;;4.72;1.70;;;;;;;;;;4996382;28;20057;-71
2023/09/18 12:40:58;;;;;;;3.70;1.17;;;;;;;;;;4996541;28;20046;-71
2023/09/18 12:43:24;;;;;;;3.30;1.30;;;;;;;;;;4997233;28;20049;-73
2023/09/18 12:45:50;;;;;;;3.28;1.23;;;;;;;;;;4995852;28;20054;-74
2023/09/18 12:48:16;;;;;;;7.43;1.00;;;;;;;;;;4994809;28;20515;-74
2023/09/18 12:50:42;;;;;;;6.35;0.80;;;;;;;;;;4995483;28;20060;-73
2023/09/18 12:53:15;;;;;;;1.95;0.85;;;;;;;;;;4995999;28;20869;-74
2023/09/18 12:55:42;;;;;;;1.67;0.63;;;;;;;;;;4996611;28;20058;-73
2023/09/18 12:58:11;;;;;;;2.05;0.80;;;;;;;;;;4995726;28;20050;-73
2023/09/18 13:00:36;;;;;;;2.67;0.70;;;;;;;;;;4996361;28;20080;-72
2023/09/18 13:03:04;;;;;;;0.50;0.50;;;;;;;;;;4996272;28;20152;-71
2023/09/18 13:05:32;;;;;;;0.57;0.57;;;;;;;;;;4996742;28;20128;-73
2023/09/18 13:08:03;;;;;;;2.05;0.60;;;;;;;;;;4996831;28;20038;-72
2023/09/18 13:10:28;;;;;;;2.45;0.70;;;;;;;;;;4995913;28;20158;-71
2023/09/18 13:12:55;;;;;;;1.60;0.65;;;;;;;;;;4997121;28;20128;-73
2023/09/18 13:15:33;;;;;;;3.58;0.88;;;;;;;;;;4994823;28;20176;-71
2023/09/18 13:18:08;;;;;;;1.67;0.60;;;;;;;;;;4996355;28;20445;-72
2023/09/18 13:20:33;;;;;;;5.25;0.90;;;;;;;;;;4994518;28;20651;-73
2023/09/18 13:23:00;;;;;;;1.73;0.52;;;;;;;;;;5011313;28;20054;-73
2023/09/18 13:25:29;;;;;;;1.40;0.50;;;;;;;;;;4994956;28;20042;-73
2023/09/18 13:27:55;;;;;;;3.70;0.60;;;;;;;;;;4996665;28;20056;-72
2023/09/18 13:30:22;;;;;;;2.05;0.60;;;;;;;;;;4993615;28;20042;-72
2023/09/18 13:32:50;;;;;;;1.38;0.60;;;;;;;;;;4994809;28;20050;-74
2023/09/18 13:35:19;;;;;;;2.03;0.70;;;;;;;;;;4998848;28;20387;-73
2023/09/18 13:37:45;;;;;;;1.50;0.57;;;;;;;;;;5000070;28;20033;-72
2023/09/18 13:40:11;;;;;;;0.98;0.60;;;;;;;;;;4999070;28;20072;-73
2023/09/18 13:42:40;;;;;;;4.22;0.60;;;;;;;;;;4999624;28;20142;-72
2023/09/18 13:45:06;;;;;;;0.90;0.50;;;;;;;;;;4999419;28;20092;-72
2023/09/18 13:47:33;;;;;;;0.90;0.60;;;;;;;;;;4999681;28;20030;-74
2023/09/18 13:50:00;;;;;;;0.60;0.40;;;;;;;;;;4998629;28;20414;-71
2023/09/18 13:52:33;;;;;;;4.13;0.70;;;;;;;;;;4998158;28;20096;-71
2023/09/18 13:54:59;;;;;;;0.55;0.50;;;;;;;;;;4994537;28;20038;-72
2023/09/18 13:57:24;;;;;;;3.03;1.00;;;;;;;;;;4995191;28;20057;-72
2023/09/18 13:59:51;;;;;;;1.75;0.75;;;;;;;;;;5013628;28;20146;-72
2023/09/18 14:02:17;;;;;;;2.10;0.70;;;;;;;;;;4998013;28;20049;-72
2023/09/18 14:04:43;;;;;;;1.88;0.70;;;;;;;;;;4998108;28;20058;-71
2023/09/18 14:07:10;;;;;;;4.15;1.13;;;;;;;;;;4996704;28;20042;-72
2023/09/18 14:09:36;;;;;;;2.63;0.73;;;;;;;;;;4998148;28;20050;-71
2023/09/18 14:12:07;;;;;;;1.50;0.70;;;;;;;;;;4997310;28;20049;-71
2023/09/18 14:14:32;;;;;;;0.90;0.70;;;;;;;;;;4997144;28;20065;-71
2023/09/18 14:16:58;;;;;;;1.58;0.80;;;;;;;;;;4996140;28;20058;-71
2023/09/18 14:19:24;;;;;;;1.88;0.68;;;;;;;;;;4997611;28;20084;-71
2023/09/18 14:21:49;;;;;;;1.50;0.80;;;;;;;;;;4998843;28;20101;-70
2023/09/18 14:24:18;;;;;;;2.47;0.63;;;;;;;;;;4979366;28;20092;-70
2023/09/18 14:26:44;;;;;;;1.15;0.68;;;;;;;;;;4997387;28;20041;-71
2023/09/18 14:29:10;;;;;;;2.47;0.65;;;;;;;;;;4999066;28;20096;-71
2023/09/18 14:31:39;;;;;;;1.90;0.70;;;;;;;;;;5000707;28;20037;-71
2023/09/18 14:34:08;;;;;;;4.13;0.80;;;;;;;;;;4999772;28;20152;-71
2023/09/18 14:36:38;;;;;;;2.05;0.95;;;;;;;;;;4999822;28;20057;-70
2023/09/18 14:39:04;;;;;;;2.42;0.50;;;;;;;;;;5002702;28;20041;-72
2023/09/18 14:41:30;;;;;;;2.45;0.70;;;;;;;;;;5006303;28;20060;-72
2023/09/18 14:43:57;;;;;;;2.28;0.70;;;;;;;;;;5002488;28;20114;-72